Terminal Aerodrome Forecast
Issued by NWS

Home | Current Version | Previous Version | Text Only | Print | Product List | Glossary On
Versions: 1 2 3 4 5 6 7 8 9 10 11 12 13 14 15 16 17 18 19 20 21 22 23 24 25 26 27 28 29 30 31 32
000
FTUS42 KJAX 271516 AAA
TAFVQQ
TAF AMD
KVQQ 271516Z 2715/2812 24008KT P6SM VCSH BKN015 OVC035
     FM271700 25014G22KT 5SM -SHRA VCTS SCT015 OVC025CB
     FM272000 28012G20KT P6SM VCSH SCT025 BKN040
     FM272300 29010KT P6SM SCT040 BKN250
     FM280300 32008KT P6SM SKC=

USA.gov is the U.S. government's official web portal to all federal, state and local government web resources and services.